createdAt,value
2022-08-12T05:31:49.798Z,97.40
2022-08-12T05:54:47.390Z,96.10
2022-08-12T05:59:38.938Z,96.00
2022-08-12T06:04:33.842Z,95.50
2022-08-12T06:09:31.121Z,94.90
2022-08-12T06:14:25.018Z,94.40
2022-08-12T06:19:21.727Z,93.20
2022-08-12T06:24:15.542Z,92.90
2022-08-12T06:29:10.653Z,90.90
2022-08-12T06:35:27.088Z,90.40
2022-08-12T06:39:18.101Z,88.90
2022-08-12T06:44:20.636Z,84.00
2022-08-12T06:49:14.678Z,83.20
2022-08-12T06:54:12.227Z,80.20
2022-08-12T06:59:23.024Z,79.30
2022-08-12T07:04:35.947Z,79.30
2022-08-12T07:10:01.327Z,80.10
2022-08-12T07:14:48.789Z,80.40
2022-08-12T07:19:45.374Z,78.70
2022-08-12T07:24:39.289Z,78.80
2022-08-12T07:30:03.480Z,77.20
2022-08-12T07:34:49.951Z,77.20
2022-08-12T07:39:50.047Z,77.10
2022-08-12T07:44:53.227Z,76.30
2022-08-12T07:50:05.745Z,76.30
2022-08-12T07:55:00.942Z,77.70
2022-08-12T07:59:55.887Z,75.90
2022-08-12T08:05:00.856Z,76.20
2022-08-12T08:09:58.690Z,76.30
2022-08-12T08:14:56.200Z,81.10
2022-08-12T08:20:03.954Z,75.60
2022-08-12T08:24:58.808Z,76.00
2022-08-12T08:29:52.600Z,74.50
2022-08-12T08:34:53.688Z,72.90
2022-08-12T08:39:49.997Z,71.40
2022-08-12T08:44:44.472Z,72.50
2022-08-12T08:49:38.631Z,75.00
2022-08-12T08:54:33.693Z,72.50
2022-08-12T08:59:30.883Z,77.40
2022-08-12T09:05:12.699Z,71.80
2022-08-12T09:10:02.061Z,77.80
2022-08-12T09:14:55.077Z,75.50
2022-08-12T09:19:55.188Z,73.10
2022-08-12T09:24:51.825Z,74.30
2022-08-12T09:30:09.952Z,70.20
2022-08-12T09:35:02.897Z,71.50
2022-08-12T09:40:05.535Z,71.00
2022-08-12T09:45:24.164Z,70.00
2022-08-12T09:50:22.001Z,73.00
2022-08-12T09:55:59.432Z,73.30
2022-08-12T10:00:43.161Z,71.60
2022-08-12T10:06:20.071Z,67.80
2022-08-12T10:11:21.306Z,66.70
2022-08-12T10:16:22.057Z,64.70
2022-08-12T10:21:20.456Z,64.40
2022-08-12T10:26:39.349Z,63.90
2022-08-12T10:31:46.946Z,63.20
2022-08-12T10:36:51.935Z,63.20
2022-08-12T10:42:05.067Z,59.50
2022-08-12T10:46:59.529Z,62.20
2022-08-12T10:52:31.091Z,60.40
2022-08-12T10:57:18.505Z,60.60
2022-08-12T11:04:26.562Z,60.60
2022-08-12T11:08:34.163Z,59.50
2022-08-12T11:13:00.337Z,61.30
2022-08-12T11:17:55.034Z,64.20
2022-08-12T11:22:59.523Z,61.80
2022-08-12T11:27:53.444Z,62.00
2022-08-12T11:32:47.664Z,58.90
2022-08-12T11:37:58.957Z,55.90
2022-08-12T11:42:57.945Z,56.50
2022-08-12T11:48:08.577Z,57.90
2022-08-12T11:53:58.460Z,54.80
2022-08-12T11:59:16.205Z,53.30
2022-08-12T12:03:46.244Z,51.80
2022-08-12T12:08:43.308Z,53.70
2022-08-12T12:14:07.656Z,50.80
2022-08-12T12:18:57.325Z,48.10
2022-08-12T12:23:51.041Z,46.90
2022-08-12T12:28:54.476Z,48.10
2022-08-12T12:33:57.969Z,47.50
2022-08-12T12:38:52.854Z,44.90
2022-08-12T12:44:03.971Z,46.70
2022-08-12T12:48:58.234Z,46.50
2022-08-12T12:54:07.902Z,46.60
2022-08-12T12:59:06.276Z,46.30
2022-08-12T13:04:02.524Z,47.50
2022-08-12T13:08:57.231Z,47.60
2022-08-12T13:14:08.647Z,49.10
2022-08-12T13:19:07.846Z,49.60
2022-08-12T13:24:10.425Z,50.10
2022-08-12T13:29:04.734Z,49.60
2022-08-12T13:34:33.948Z,51.30
2022-08-12T13:39:16.078Z,51.20
2022-08-12T13:44:12.041Z,51.20
2022-08-12T13:49:07.881Z,52.80
2022-08-12T13:54:05.025Z,56.90
2022-08-12T13:59:08.728Z,60.70
2022-08-12T14:04:04.792Z,62.70
2022-08-12T14:08:58.744Z,66.70
2022-08-12T14:14:04.150Z,82.90
2022-08-12T14:19:22.821Z,90.80
2022-08-12T14:24:18.976Z,92.70
2022-08-12T14:29:37.914Z,95.00
2022-08-12T14:34:36.238Z,98.20
2022-08-12T14:39:30.239Z,98.30
2022-08-12T14:44:59.476Z,99.30
2022-08-12T14:50:37.231Z,99.90
2022-08-12T15:00:24.959Z,99.90
2022-08-12T15:06:06.636Z,99.90
2022-08-12T15:10:37.279Z,99.90
2022-08-12T15:15:34.148Z,99.90
2022-08-12T15:20:38.114Z,99.90
2022-08-12T15:25:40.342Z,99.90
2022-08-12T15:30:41.991Z,99.90
2022-08-12T15:35:50.279Z,99.90
2022-08-12T15:40:49.619Z,99.90
2022-08-12T15:45:47.495Z,99.90
2022-08-12T15:50:45.407Z,99.90
2022-08-12T15:55:45.874Z,99.90
2022-08-12T16:00:42.589Z,99.90
2022-08-12T16:06:16.959Z,99.90
2022-08-12T16:10:56.883Z,99.90
2022-08-12T16:16:01.524Z,99.90
2022-08-12T16:20:56.608Z,99.90
2022-08-12T16:26:03.018Z,99.90
2022-08-12T16:31:02.177Z,99.90
2022-08-12T16:35:56.257Z,99.90
2022-08-12T16:40:50.310Z,99.90
2022-08-12T16:46:24.100Z,99.90
2022-08-12T16:51:03.946Z,99.90
2022-08-12T16:56:03.023Z,99.90
2022-08-12T17:00:57.217Z,99.90
2022-08-12T17:05:53.620Z,99.90
2022-08-12T17:10:52.796Z,99.90
2022-08-12T17:15:56.849Z,99.90
2022-08-12T17:21:07.730Z,99.90
2022-08-12T17:26:05.618Z,99.90
2022-08-12T17:31:01.378Z,99.90
2022-08-12T17:35:58.670Z,99.90
2022-08-12T17:40:52.735Z,99.90
2022-08-12T17:45:49.477Z,99.90
2022-08-12T17:50:46.014Z,99.90
2022-08-12T17:55:47.347Z,99.90
2022-08-12T18:00:45.695Z,99.90
2022-08-12T18:05:55.550Z,99.90
2022-08-12T18:11:12.350Z,99.90
2022-08-12T18:16:27.099Z,99.90
2022-08-12T18:21:23.554Z,99.90
2022-08-12T18:26:25.046Z,99.90
2022-08-12T18:31:23.041Z,99.90
2022-08-12T18:36:22.596Z,99.90
2022-08-12T18:41:33.721Z,99.90
2022-08-12T18:46:37.921Z,99.90
2022-08-12T18:51:34.222Z,99.90
2022-08-12T18:56:41.771Z,99.90
2022-08-12T19:02:19.549Z,99.90
2022-08-12T19:06:51.671Z,99.90
2022-08-12T19:12:06.259Z,99.90
2022-08-12T19:17:04.059Z,99.90
2022-08-12T19:21:58.018Z,99.90
